Nearby METAR Reports

 

NZAA - Auckland Intl Ar, New Zealand
Distance from station: SE 144km
Updated: 28/07/2016 02:00
Partly cloudy
Partly cloudy
 Wind from NE
Wind: NE 9 km/h
Temperature: 12°C
Dew Point: 12°C
Humidity: 100%
Barometer: 1014 hPa
Clouds: Partly cloudy
Visibility: 10 km
Cloud details: Few Clouds 701 m
Partly cloudy 2438 m
2016/07/27 14:00 NZAA 271400Z AUTO 04005KT 9999 FEW023/// SCT080/// 12/12 Q1014 NOSIG
NZWN - Wellington Intl, New Zealand
Distance from station: S 597km
Updated: 28/07/2016 02:00
Light rain showers, Overcast
Light rain showers, Overcast
 Wind from N
Wind: N 43 km/h, Gust: 69 km/h
Temperature: 13°C
Dew Point: 10°C
Humidity: 82%
Barometer: 1004 hPa
Summary: Light Rain Showers
Clouds: Overcast
Visibility: 7 km
Cloud details: Partly cloudy 640 m
Mostly cloudy 823 m
Overcast 1524 m
2016/07/27 14:00 NZWN 271400Z AUTO 35023G37KT 310V010 7000 -SHRA SCT021/// BKN027/// OVC050/// 13/10 Q1004 TEMPO 4000 RA
 
NZCH - Christchurch Int, New Zealand
Distance from station: S 837km
Updated: 28/07/2016 02:00
Clear
Clear
 Wind from NNE
Wind: NNE 13 km/h
Temperature: 11°C
Dew Point: 1°C
Humidity: 50%
Barometer: 993 hPa
Clouds: Clear
Visibility: 10 km
2016/07/27 14:00 NZCH 271400Z AUTO 02007KT 320V100 9999 NCD 11/01 Q0993 NOSIG
YSNF - Norfolk Island A, Australia
Distance from station: NW 952km
Updated: 28/07/2016 02:00
Overcast
Overcast
 Wind from NNW
Wind: NNW 19 km/h
Temperature: 19°C
Dew Point: 18°C
Humidity: 94%
Barometer: 1017 hPa
Clouds: Overcast
Visibility: 10 km
Cloud details: Mostly cloudy 244 m
Overcast 2408 m
2016/07/27 14:00 YSNF 271400Z AUTO 34010KT 9999 // BKN008 OVC079 19/18 Q1017